Terminal Aerodrome Forecast
Issued by NWS

Current Version | Previous Version | Text Only | Print | Product List | Glossary Off
Versions: 1 2 3 4 5 6 7 8 9 10 11 12 13 14 15 16 17 18 19 20 21 22 23 24 25

000
FTUS41 KPBZ 171139
TAFHLG
TAF
KHLG 171139Z 1712/1812 16009KT 5SM -RA BR OVC028 WS020/21035KT
     FM171400 19008KT 5SM BR OVC015 WS020/20035KT
     FM172100 24011G19KT P6SM -SHRA OVC025
     FM180200 26008KT P6SM VCSH OVC008=

USA.gov is the U.S. government's official web portal to all federal, state and local government web resources and services.